sensor_id;sensor_type;location;lat;lon;timestamp;P1;durP1;ratioP1;P2;durP2;ratioP2
9150;SDS011;4610;50.006;7.490;2023-02-01T00:01:57;7.60;;;4.97;;
9150;SDS011;4610;50.006;7.490;2023-02-01T00:04:25;8.40;;;5.07;;
9150;SDS011;4610;50.006;7.490;2023-02-01T00:06:52;6.30;;;5.10;;
9150;SDS011;4610;50.006;7.490;2023-02-01T00:09:19;7.87;;;5.83;;
9150;SDS011;4610;50.006;7.490;2023-02-01T00:11:47;8.37;;;6.03;;
9150;SDS011;4610;50.006;7.490;2023-02-01T00:14:15;7.77;;;5.80;;
9150;SDS011;4610;50.006;7.490;2023-02-01T00:16:42;8.03;;;5.63;;
9150;SDS011;4610;50.006;7.490;2023-02-01T00:19:10;7.93;;;5.47;;
9150;SDS011;4610;50.006;7.490;2023-02-01T00:21:39;9.67;;;5.10;;
9150;SDS011;4610;50.006;7.490;2023-02-01T00:24:06;7.60;;;5.77;;
9150;SDS011;4610;50.006;7.490;2023-02-01T00:26:35;9.63;;;5.40;;
9150;SDS011;4610;50.006;7.490;2023-02-01T00:29:04;8.23;;;5.37;;
9150;SDS011;4610;50.006;7.490;2023-02-01T00:31:33;6.90;;;5.47;;
9150;SDS011;4610;50.006;7.490;2023-02-01T00:34:00;8.67;;;5.37;;
9150;SDS011;4610;50.006;7.490;2023-02-01T00:36:27;10.87;;;4.83;;
9150;SDS011;4610;50.006;7.490;2023-02-01T00:38:54;6.40;;;4.80;;
9150;SDS011;4610;50.006;7.490;2023-02-01T00:41:21;7.60;;;5.43;;
9150;SDS011;4610;50.006;7.490;2023-02-01T00:43:48;8.30;;;4.97;;
9150;SDS011;4610;50.006;7.490;2023-02-01T00:46:16;6.90;;;5.23;;
9150;SDS011;4610;50.006;7.490;2023-02-01T00:48:46;7.13;;;5.03;;
9150;SDS011;4610;50.006;7.490;2023-02-01T00:51:13;6.77;;;5.23;;
9150;SDS011;4610;50.006;7.490;2023-02-01T00:53:42;7.80;;;5.63;;
9150;SDS011;4610;50.006;7.490;2023-02-01T00:56:09;7.30;;;5.10;;
9150;SDS011;4610;50.006;7.490;2023-02-01T00:58:35;7.33;;;5.73;;
9150;SDS011;4610;50.006;7.490;2023-02-01T01:01:03;7.10;;;4.90;;
9150;SDS011;4610;50.006;7.490;2023-02-01T01:03:31;7.97;;;5.20;;
9150;SDS011;4610;50.006;7.490;2023-02-01T01:06:00;6.83;;;4.83;;
9150;SDS011;4610;50.006;7.490;2023-02-01T01:08:29;4.70;;;4.00;;
9150;SDS011;4610;50.006;7.490;2023-02-01T01:10:56;5.50;;;4.20;;
9150;SDS011;4610;50.006;7.490;2023-02-01T01:13:23;9.20;;;4.17;;
9150;SDS011;4610;50.006;7.490;2023-02-01T01:15:50;5.70;;;3.80;;
9150;SDS011;4610;50.006;7.490;2023-02-01T01:18:16;5.87;;;4.53;;
9150;SDS011;4610;50.006;7.490;2023-02-01T01:20:43;8.93;;;4.93;;
9150;SDS011;4610;50.006;7.490;2023-02-01T01:23:11;8.00;;;4.90;;
9150;SDS011;4610;50.006;7.490;2023-02-01T01:25:38;5.90;;;4.60;;
9150;SDS011;4610;50.006;7.490;2023-02-01T01:28:05;6.70;;;4.90;;
9150;SDS011;4610;50.006;7.490;2023-02-01T01:30:33;6.47;;;4.33;;
9150;SDS011;4610;50.006;7.490;2023-02-01T01:33:00;5.80;;;4.30;;
9150;SDS011;4610;50.006;7.490;2023-02-01T01:35:28;7.00;;;4.30;;
9150;SDS011;4610;50.006;7.490;2023-02-01T01:37:55;7.73;;;4.37;;
9150;SDS011;4610;50.006;7.490;2023-02-01T01:40:23;5.47;;;4.47;;
9150;SDS011;4610;50.006;7.490;2023-02-01T01:42:50;7.33;;;4.30;;
9150;SDS011;4610;50.006;7.490;2023-02-01T01:45:20;7.30;;;4.40;;
9150;SDS011;4610;50.006;7.490;2023-02-01T01:47:51;5.73;;;4.20;;
9150;SDS011;4610;50.006;7.490;2023-02-01T01:50:20;5.53;;;4.10;;
9150;SDS011;4610;50.006;7.490;2023-02-01T01:52:49;6.07;;;3.80;;
9150;SDS011;4610;50.006;7.490;2023-02-01T01:55:18;5.03;;;3.37;;
9150;SDS011;4610;50.006;7.490;2023-02-01T01:57:48;4.43;;;3.23;;
9150;SDS011;4610;50.006;7.490;2023-02-01T02:00:20;4.27;;;2.90;;
9150;SDS011;4610;50.006;7.490;2023-02-01T02:02:48;3.87;;;2.83;;
9150;SDS011;4610;50.006;7.490;2023-02-01T02:05:20;3.70;;;2.60;;
9150;SDS011;4610;50.006;7.490;2023-02-01T02:07:48;3.20;;;2.60;;
9150;SDS011;4610;50.006;7.490;2023-02-01T02:10:16;3.03;;;2.50;;
9150;SDS011;4610;50.006;7.490;2023-02-01T02:12:44;5.50;;;3.10;;
9150;SDS011;4610;50.006;7.490;2023-02-01T02:15:14;4.30;;;2.67;;
9150;SDS011;4610;50.006;7.490;2023-02-01T02:17:44;3.33;;;2.63;;
9150;SDS011;4610;50.006;7.490;2023-02-01T02:23:12;5.90;;;3.00;;
9150;SDS011;4610;50.006;7.490;2023-02-01T02:26:10;7.37;;;3.23;;
9150;SDS011;4610;50.006;7.490;2023-02-01T02:29:07;5.87;;;2.97;;
9150;SDS011;4610;50.006;7.490;2023-02-01T02:32:03;6.77;;;3.33;;
9150;SDS011;4610;50.006;7.490;2023-02-01T02:34:49;8.37;;;4.23;;
9150;SDS011;4610;50.006;7.490;2023-02-01T02:37:22;5.37;;;3.13;;
9150;SDS011;4610;50.006;7.490;2023-02-01T02:40:01;5.30;;;3.30;;
9150;SDS011;4610;50.006;7.490;2023-02-01T02:42:36;7.60;;;3.70;;
9150;SDS011;4610;50.006;7.490;2023-02-01T02:45:26;6.30;;;3.60;;
9150;SDS011;4610;50.006;7.490;2023-02-01T02:48:17;6.63;;;3.90;;
9150;SDS011;4610;50.006;7.490;2023-02-01T02:50:50;7.07;;;3.80;;
9150;SDS011;4610;50.006;7.490;2023-02-01T02:53:42;7.90;;;4.10;;
9150;SDS011;4610;50.006;7.490;2023-02-01T02:56:32;10.63;;;4.30;;
9150;SDS011;4610;50.006;7.490;2023-02-01T02:59:19;5.43;;;3.77;;
9150;SDS011;4610;50.006;7.490;2023-02-01T03:02:07;9.80;;;3.80;;
9150;SDS011;4610;50.006;7.490;2023-02-01T03:04:52;4.83;;;3.30;;
9150;SDS011;4610;50.006;7.490;2023-02-01T03:10:16;8.80;;;3.27;;
9150;SDS011;4610;50.006;7.490;2023-02-01T03:12:50;9.43;;;3.13;;
9150;SDS011;4610;50.006;7.490;2023-02-01T03:15:24;12.83;;;3.50;;
9150;SDS011;4610;50.006;7.490;2023-02-01T03:17:58;7.43;;;3.57;;
9150;SDS011;4610;50.006;7.490;2023-02-01T03:20:30;7.37;;;3.20;;
9150;SDS011;4610;50.006;7.490;2023-02-01T03:22:59;6.33;;;2.93;;
9150;SDS011;4610;50.006;7.490;2023-02-01T03:25:27;4.57;;;2.40;;
9150;SDS011;4610;50.006;7.490;2023-02-01T03:27:59;7.37;;;2.80;;
9150;SDS011;4610;50.006;7.490;2023-02-01T03:30:28;5.43;;;2.90;;
9150;SDS011;4610;50.006;7.490;2023-02-01T03:32:58;5.10;;;2.60;;
9150;SDS011;4610;50.006;7.490;2023-02-01T03:35:30;5.97;;;2.20;;
9150;SDS011;4610;50.006;7.490;2023-02-01T03:38:03;4.03;;;2.40;;
9150;SDS011;4610;50.006;7.490;2023-02-01T03:40:38;7.13;;;2.47;;
9150;SDS011;4610;50.006;7.490;2023-02-01T03:43:07;9.47;;;2.73;;
9150;SDS011;4610;50.006;7.490;2023-02-01T03:45:39;9.17;;;2.30;;
9150;SDS011;4610;50.006;7.490;2023-02-01T03:48:10;6.97;;;3.00;;
9150;SDS011;4610;50.006;7.490;2023-02-01T03:50:40;4.37;;;2.30;;
9150;SDS011;4610;50.006;7.490;2023-02-01T03:53:13;10.37;;;2.60;;
9150;SDS011;4610;50.006;7.490;2023-02-01T03:55:43;8.87;;;3.07;;
9150;SDS011;4610;50.006;7.490;2023-02-01T03:58:11;8.60;;;2.90;;
9150;SDS011;4610;50.006;7.490;2023-02-01T04:00:39;10.17;;;2.97;;
9150;SDS011;4610;50.006;7.490;2023-02-01T04:03:09;5.73;;;2.40;;
9150;SDS011;4610;50.006;7.490;2023-02-01T04:05:36;6.33;;;2.67;;
9150;SDS011;4610;50.006;7.490;2023-02-01T04:08:03;5.53;;;2.77;;
9150;SDS011;4610;50.006;7.490;2023-02-01T04:10:32;7.93;;;2.80;;
9150;SDS011;4610;50.006;7.490;2023-02-01T04:12:59;10.53;;;2.73;;
9150;SDS011;4610;50.006;7.490;2023-02-01T04:15:25;6.23;;;2.50;;
9150;SDS011;4610;50.006;7.490;2023-02-01T04:17:52;6.30;;;2.67;;
9150;SDS011;4610;50.006;7.490;2023-02-01T04:20:19;10.20;;;3.30;;
9150;SDS011;4610;50.006;7.490;2023-02-01T04:22:46;5.67;;;2.67;;
9150;SDS011;4610;50.006;7.490;2023-02-01T04:25:12;4.57;;;2.63;;
9150;SDS011;4610;50.006;7.490;2023-02-01T04:27:40;7.27;;;3.07;;
9150;SDS011;4610;50.006;7.490;2023-02-01T04:30:08;13.77;;;3.13;;
9150;SDS011;4610;50.006;7.490;2023-02-01T04:32:35;5.73;;;3.10;;
9150;SDS011;4610;50.006;7.490;2023-02-01T04:35:02;7.57;;;3.47;;
9150;SDS011;4610;50.006;7.490;2023-02-01T04:37:30;8.07;;;3.57;;
9150;SDS011;4610;50.006;7.490;2023-02-01T04:39:56;9.67;;;3.83;;
9150;SDS011;4610;50.006;7.490;2023-02-01T04:42:23;11.57;;;3.50;;
9150;SDS011;4610;50.006;7.490;2023-02-01T04:44:51;6.43;;;3.23;;
9150;SDS011;4610;50.006;7.490;2023-02-01T04:47:18;9.63;;;3.20;;
9150;SDS011;4610;50.006;7.490;2023-02-01T04:49:46;7.53;;;3.20;;
9150;SDS011;4610;50.006;7.490;2023-02-01T04:52:13;12.13;;;3.30;;
9150;SDS011;4610;50.006;7.490;2023-02-01T04:54:40;10.70;;;3.10;;
9150;SDS011;4610;50.006;7.490;2023-02-01T04:57:06;13.13;;;3.30;;
9150;SDS011;4610;50.006;7.490;2023-02-01T04:59:33;5.50;;;2.63;;
9150;SDS011;4610;50.006;7.490;2023-02-01T05:02:01;9.53;;;2.93;;
9150;SDS011;4610;50.006;7.490;2023-02-01T05:04:28;8.40;;;3.30;;
9150;SDS011;4610;50.006;7.490;2023-02-01T05:06:55;8.70;;;3.17;;
9150;SDS011;4610;50.006;7.490;2023-02-01T05:09:21;8.00;;;3.00;;
9150;SDS011;4610;50.006;7.490;2023-02-01T05:11:48;8.10;;;3.23;;
9150;SDS011;4610;50.006;7.490;2023-02-01T05:14:32;7.17;;;3.33;;
9150;SDS011;4610;50.006;7.490;2023-02-01T05:16:59;11.13;;;3.30;;
9150;SDS011;4610;50.006;7.490;2023-02-01T05:19:27;11.87;;;2.90;;
9150;SDS011;4610;50.006;7.490;2023-02-01T05:21:54;5.63;;;3.20;;
9150;SDS011;4610;50.006;7.490;2023-02-01T05:24:20;8.43;;;2.83;;
9150;SDS011;4610;50.006;7.490;2023-02-01T05:26:47;7.80;;;3.70;;
9150;SDS011;4610;50.006;7.490;2023-02-01T05:29:15;5.97;;;2.50;;
9150;SDS011;4610;50.006;7.490;2023-02-01T05:31:43;6.73;;;2.70;;
9150;SDS011;4610;50.006;7.490;2023-02-01T05:34:10;6.37;;;2.30;;
9150;SDS011;4610;50.006;7.490;2023-02-01T05:36:41;4.13;;;2.07;;
9150;SDS011;4610;50.006;7.490;2023-02-01T05:39:07;9.93;;;2.80;;
9150;SDS011;4610;50.006;7.490;2023-02-01T05:41:35;7.67;;;2.70;;
9150;SDS011;4610;50.006;7.490;2023-02-01T05:44:02;11.27;;;3.43;;
9150;SDS011;4610;50.006;7.490;2023-02-01T05:46:30;8.73;;;2.93;;
9150;SDS011;4610;50.006;7.490;2023-02-01T05:48:57;8.67;;;3.00;;
9150;SDS011;4610;50.006;7.490;2023-02-01T05:51:24;8.37;;;2.87;;
9150;SDS011;4610;50.006;7.490;2023-02-01T05:53:52;11.43;;;3.43;;
9150;SDS011;4610;50.006;7.490;2023-02-01T05:56:19;13.17;;;3.80;;
9150;SDS011;4610;50.006;7.490;2023-02-01T05:58:45;9.93;;;3.20;;
9150;SDS011;4610;50.006;7.490;2023-02-01T06:01:12;16.47;;;3.47;;
9150;SDS011;4610;50.006;7.490;2023-02-01T06:03:39;16.07;;;3.73;;
9150;SDS011;4610;50.006;7.490;2023-02-01T06:06:06;8.63;;;2.97;;
9150;SDS011;4610;50.006;7.490;2023-02-01T06:08:33;7.53;;;3.50;;
9150;SDS011;4610;50.006;7.490;2023-02-01T06:11:01;10.30;;;3.67;;
9150;SDS011;4610;50.006;7.490;2023-02-01T06:13:29;15.47;;;4.67;;
9150;SDS011;4610;50.006;7.490;2023-02-01T06:15:56;10.90;;;4.23;;
9150;SDS011;4610;50.006;7.490;2023-02-01T06:18:22;7.27;;;3.07;;
9150;SDS011;4610;50.006;7.490;2023-02-01T06:20:51;8.90;;;3.97;;
9150;SDS011;4610;50.006;7.490;2023-02-01T06:23:19;12.50;;;4.17;;
9150;SDS011;4610;50.006;7.490;2023-02-01T06:25:49;10.73;;;3.43;;
9150;SDS011;4610;50.006;7.490;2023-02-01T06:28:18;15.07;;;3.53;;
9150;SDS011;4610;50.006;7.490;2023-02-01T06:30:45;8.03;;;4.03;;
9150;SDS011;4610;50.006;7.490;2023-02-01T06:33:12;8.17;;;3.40;;
9150;SDS011;4610;50.006;7.490;2023-02-01T06:35:40;9.53;;;3.50;;
9150;SDS011;4610;50.006;7.490;2023-02-01T06:38:08;9.47;;;3.33;;
9150;SDS011;4610;50.006;7.490;2023-02-01T06:40:35;13.03;;;3.40;;
9150;SDS011;4610;50.006;7.490;2023-02-01T06:43:02;14.23;;;4.37;;
9150;SDS011;4610;50.006;7.490;2023-02-01T06:45:30;13.20;;;3.17;;
9150;SDS011;4610;50.006;7.490;2023-02-01T06:47:57;16.93;;;4.00;;
9150;SDS011;4610;50.006;7.490;2023-02-01T06:50:25;13.03;;;3.37;;
9150;SDS011;4610;50.006;7.490;2023-02-01T06:52:52;11.47;;;3.77;;
9150;SDS011;4610;50.006;7.490;2023-02-01T06:55:19;12.33;;;3.37;;
9150;SDS011;4610;50.006;7.490;2023-02-01T06:57:46;14.70;;;3.50;;
9150;SDS011;4610;50.006;7.490;2023-02-01T07:00:13;16.40;;;3.73;;
9150;SDS011;4610;50.006;7.490;2023-02-01T07:02:41;14.33;;;3.57;;
9150;SDS011;4610;50.006;7.490;2023-02-01T07:05:08;19.53;;;3.50;;
9150;SDS011;4610;50.006;7.490;2023-02-01T07:07:35;14.30;;;3.37;;
9150;SDS011;4610;50.006;7.490;2023-02-01T07:10:02;18.67;;;3.90;;
9150;SDS011;4610;50.006;7.490;2023-02-01T07:12:29;13.73;;;3.70;;
9150;SDS011;4610;50.006;7.490;2023-02-01T07:14:56;13.60;;;3.17;;
9150;SDS011;4610;50.006;7.490;2023-02-01T07:17:22;19.20;;;4.37;;
9150;SDS011;4610;50.006;7.490;2023-02-01T07:19:50;17.40;;;3.40;;
9150;SDS011;4610;50.006;7.490;2023-02-01T07:22:17;13.53;;;4.00;;
9150;SDS011;4610;50.006;7.490;2023-02-01T07:24:44;10.83;;;3.20;;
9150;SDS011;4610;50.006;7.490;2023-02-01T07:27:11;10.13;;;3.03;;
9150;SDS011;4610;50.006;7.490;2023-02-01T07:29:37;8.37;;;3.13;;
9150;SDS011;4610;50.006;7.490;2023-02-01T07:32:04;13.87;;;3.27;;
9150;SDS011;4610;50.006;7.490;2023-02-01T07:34:31;14.27;;;3.50;;
9150;SDS011;4610;50.006;7.490;2023-02-01T07:37:00;15.80;;;3.77;;
9150;SDS011;4610;50.006;7.490;2023-02-01T07:39:27;13.23;;;3.20;;
9150;SDS011;4610;50.006;7.490;2023-02-01T07:41:56;12.33;;;3.10;;
9150;SDS011;4610;50.006;7.490;2023-02-01T07:44:23;18.37;;;4.00;;
9150;SDS011;4610;50.006;7.490;2023-02-01T07:46:50;13.97;;;3.07;;
9150;SDS011;4610;50.006;7.490;2023-02-01T07:49:17;13.43;;;3.10;;
9150;SDS011;4610;50.006;7.490;2023-02-01T07:51:43;10.20;;;2.60;;
9150;SDS011;4610;50.006;7.490;2023-02-01T07:54:11;17.10;;;3.63;;
9150;SDS011;4610;50.006;7.490;2023-02-01T07:56:38;10.50;;;3.13;;
9150;SDS011;4610;50.006;7.490;2023-02-01T07:59:05;11.70;;;3.03;;
9150;SDS011;4610;50.006;7.490;2023-02-01T08:01:32;17.33;;;3.10;;
9150;SDS011;4610;50.006;7.490;2023-02-01T08:04:00;14.50;;;3.00;;
9150;SDS011;4610;50.006;7.490;2023-02-01T08:06:28;11.70;;;3.13;;
9150;SDS011;4610;50.006;7.490;2023-02-01T08:08:57;9.87;;;2.80;;
9150;SDS011;4610;50.006;7.490;2023-02-01T08:11:25;8.50;;;2.70;;
9150;SDS011;4610;50.006;7.490;2023-02-01T08:13:53;18.27;;;3.30;;
9150;SDS011;4610;50.006;7.490;2023-02-01T08:16:20;15.13;;;2.73;;
9150;SDS011;4610;50.006;7.490;2023-02-01T08:18:48;13.67;;;2.80;;
9150;SDS011;4610;50.006;7.490;2023-02-01T08:21:16;11.47;;;3.07;;
9150;SDS011;4610;50.006;7.490;2023-02-01T08:23:44;12.43;;;2.57;;
9150;SDS011;4610;50.006;7.490;2023-02-01T08:26:12;10.67;;;3.57;;
9150;SDS011;4610;50.006;7.490;2023-02-01T08:28:41;12.27;;;2.63;;
9150;SDS011;4610;50.006;7.490;2023-02-01T08:31:10;14.53;;;2.67;;
9150;SDS011;4610;50.006;7.490;2023-02-01T08:33:39;16.47;;;3.20;;
9150;SDS011;4610;50.006;7.490;2023-02-01T08:36:07;13.30;;;2.40;;
9150;SDS011;4610;50.006;7.490;2023-02-01T08:38:35;14.07;;;3.10;;
9150;SDS011;4610;50.006;7.490;2023-02-01T08:41:04;8.60;;;2.40;;
9150;SDS011;4610;50.006;7.490;2023-02-01T08:43:31;14.27;;;2.57;;
9150;SDS011;4610;50.006;7.490;2023-02-01T08:45:59;13.47;;;2.87;;
9150;SDS011;4610;50.006;7.490;2023-02-01T08:48:26;8.83;;;2.57;;
9150;SDS011;4610;50.006;7.490;2023-02-01T08:50:53;13.53;;;2.67;;
9150;SDS011;4610;50.006;7.490;2023-02-01T08:53:20;14.50;;;2.77;;
9150;SDS011;4610;50.006;7.490;2023-02-01T08:55:47;13.03;;;2.30;;
9150;SDS011;4610;50.006;7.490;2023-02-01T08:58:14;15.53;;;3.13;;
9150;SDS011;4610;50.006;7.490;2023-02-01T09:00:42;7.30;;;2.50;;
9150;SDS011;4610;50.006;7.490;2023-02-01T09:03:11;15.50;;;3.30;;
9150;SDS011;4610;50.006;7.490;2023-02-01T09:05:38;9.70;;;2.70;;
9150;SDS011;4610;50.006;7.490;2023-02-01T09:08:04;12.40;;;2.77;;
9150;SDS011;4610;50.006;7.490;2023-02-01T09:10:34;13.37;;;2.67;;
9150;SDS011;4610;50.006;7.490;2023-02-01T09:13:02;10.73;;;2.07;;
9150;SDS011;4610;50.006;7.490;2023-02-01T09:15:29;9.03;;;2.63;;
9150;SDS011;4610;50.006;7.490;2023-02-01T09:17:55;13.37;;;3.77;;
9150;SDS011;4610;50.006;7.490;2023-02-01T09:20:23;8.97;;;2.53;;
9150;SDS011;4610;50.006;7.490;2023-02-01T09:22:50;10.17;;;2.50;;
9150;SDS011;4610;50.006;7.490;2023-02-01T09:25:17;9.87;;;2.47;;
9150;SDS011;4610;50.006;7.490;2023-02-01T09:27:44;8.40;;;2.70;;
9150;SDS011;4610;50.006;7.490;2023-02-01T09:30:11;10.90;;;2.67;;
9150;SDS011;4610;50.006;7.490;2023-02-01T09:32:38;11.10;;;2.60;;
9150;SDS011;4610;50.006;7.490;2023-02-01T09:35:05;9.50;;;2.60;;
9150;SDS011;4610;50.006;7.490;2023-02-01T09:37:34;11.43;;;2.37;;
9150;SDS011;4610;50.006;7.490;2023-02-01T09:40:02;9.83;;;2.80;;
9150;SDS011;4610;50.006;7.490;2023-02-01T09:42:35;16.87;;;2.43;;
9150;SDS011;4610;50.006;7.490;2023-02-01T09:45:24;13.00;;;3.47;;
9150;SDS011;4610;50.006;7.490;2023-02-01T09:47:59;11.80;;;2.70;;
9150;SDS011;4610;50.006;7.490;2023-02-01T09:50:35;10.80;;;2.80;;
9150;SDS011;4610;50.006;7.490;2023-02-01T09:53:06;11.77;;;2.77;;
9150;SDS011;4610;50.006;7.490;2023-02-01T09:55:39;14.60;;;2.57;;
9150;SDS011;4610;50.006;7.490;2023-02-01T09:58:08;11.17;;;2.67;;
9150;SDS011;4610;50.006;7.490;2023-02-01T10:00:42;9.97;;;2.47;;
9150;SDS011;4610;50.006;7.490;2023-02-01T10:03:16;8.80;;;2.40;;
9150;SDS011;4610;50.006;7.490;2023-02-01T10:05:47;7.77;;;2.60;;
9150;SDS011;4610;50.006;7.490;2023-02-01T10:08:29;16.07;;;2.93;;
9150;SDS011;4610;50.006;7.490;2023-02-01T10:11:07;15.93;;;2.73;;
9150;SDS011;4610;50.006;7.490;2023-02-01T10:13:48;17.63;;;3.20;;
9150;SDS011;4610;50.006;7.490;2023-02-01T10:16:28;13.87;;;2.67;;
9150;SDS011;4610;50.006;7.490;2023-02-01T10:21:57;8.80;;;2.20;;
9150;SDS011;4610;50.006;7.490;2023-02-01T10:24:39;13.37;;;2.83;;
9150;SDS011;4610;50.006;7.490;2023-02-01T10:27:12;8.90;;;2.30;;
9150;SDS011;4610;50.006;7.490;2023-02-01T10:29:43;9.90;;;3.10;;
9150;SDS011;4610;50.006;7.490;2023-02-01T10:32:15;10.50;;;3.20;;
9150;SDS011;4610;50.006;7.490;2023-02-01T10:34:44;5.20;;;1.87;;
9150;SDS011;4610;50.006;7.490;2023-02-01T10:37:17;11.70;;;2.87;;
9150;SDS011;4610;50.006;7.490;2023-02-01T10:39:53;10.37;;;2.50;;
9150;SDS011;4610;50.006;7.490;2023-02-01T10:42:23;13.57;;;2.93;;
9150;SDS011;4610;50.006;7.490;2023-02-01T10:44:52;12.20;;;2.97;;
9150;SDS011;4610;50.006;7.490;2023-02-01T10:47:22;11.97;;;2.50;;
9150;SDS011;4610;50.006;7.490;2023-02-01T10:49:49;10.37;;;3.20;;
9150;SDS011;4610;50.006;7.490;2023-02-01T10:52:25;12.33;;;2.60;;
9150;SDS011;4610;50.006;7.490;2023-02-01T10:57:58;14.30;;;3.30;;
9150;SDS011;4610;50.006;7.490;2023-02-01T11:00:26;22.07;;;2.83;;
9150;SDS011;4610;50.006;7.490;2023-02-01T11:02:53;14.17;;;2.77;;
9150;SDS011;4610;50.006;7.490;2023-02-01T11:05:21;11.83;;;2.70;;
9150;SDS011;4610;50.006;7.490;2023-02-01T11:07:49;9.23;;;2.87;;
9150;SDS011;4610;50.006;7.490;2023-02-01T11:10:37;10.90;;;2.60;;
9150;SDS011;4610;50.006;7.490;2023-02-01T11:13:07;15.73;;;3.00;;
9150;SDS011;4610;50.006;7.490;2023-02-01T11:15:42;9.83;;;3.40;;
9150;SDS011;4610;50.006;7.490;2023-02-01T11:18:14;13.13;;;2.93;;
9150;SDS011;4610;50.006;7.490;2023-02-01T11:20:43;18.13;;;4.10;;
9150;SDS011;4610;50.006;7.490;2023-02-01T11:23:14;13.17;;;3.07;;
9150;SDS011;4610;50.006;7.490;2023-02-01T11:25:51;11.80;;;2.80;;
9150;SDS011;4610;50.006;7.490;2023-02-01T11:28:22;11.17;;;3.17;;
9150;SDS011;4610;50.006;7.490;2023-02-01T11:30:51;13.47;;;2.87;;
9150;SDS011;4610;50.006;7.490;2023-02-01T11:33:22;12.37;;;2.50;;
9150;SDS011;4610;50.006;7.490;2023-02-01T11:35:54;8.47;;;2.10;;
9150;SDS011;4610;50.006;7.490;2023-02-01T11:38:25;13.20;;;3.17;;
9150;SDS011;4610;50.006;7.490;2023-02-01T11:40:56;14.47;;;2.60;;
9150;SDS011;4610;50.006;7.490;2023-02-01T11:43:38;15.33;;;2.60;;
9150;SDS011;4610;50.006;7.490;2023-02-01T11:46:22;5.87;;;1.93;;
9150;SDS011;4610;50.006;7.490;2023-02-01T11:48:55;5.97;;;2.20;;
9150;SDS011;4610;50.006;7.490;2023-02-01T11:51:30;13.70;;;2.83;;
9150;SDS011;4610;50.006;7.490;2023-02-01T11:54:18;14.20;;;2.37;;
9150;SDS011;4610;50.006;7.490;2023-02-01T11:57:04;12.83;;;2.40;;
9150;SDS011;4610;50.006;7.490;2023-02-01T11:59:46;11.23;;;2.30;;
9150;SDS011;4610;50.006;7.490;2023-02-01T12:02:35;12.00;;;2.60;;
9150;SDS011;4610;50.006;7.490;2023-02-01T12:05:24;18.10;;;3.00;;
9150;SDS011;4610;50.006;7.490;2023-02-01T12:08:01;11.50;;;2.30;;
9150;SDS011;4610;50.006;7.490;2023-02-01T12:10:43;12.47;;;2.97;;
9150;SDS011;4610;50.006;7.490;2023-02-01T12:13:23;8.03;;;2.60;;
9150;SDS011;4610;50.006;7.490;2023-02-01T12:16:01;6.73;;;2.13;;
9150;SDS011;4610;50.006;7.490;2023-02-01T12:18:54;7.20;;;2.27;;
9150;SDS011;4610;50.006;7.490;2023-02-01T12:21:54;17.03;;;2.73;;
9150;SDS011;4610;50.006;7.490;2023-02-01T12:24:44;8.47;;;2.17;;
9150;SDS011;4610;50.006;7.490;2023-02-01T12:27:37;13.60;;;3.03;;
9150;SDS011;4610;50.006;7.490;2023-02-01T12:30:19;11.77;;;3.07;;
9150;SDS011;4610;50.006;7.490;2023-02-01T12:33:07;11.10;;;2.80;;
9150;SDS011;4610;50.006;7.490;2023-02-01T12:35:53;10.10;;;2.17;;
9150;SDS011;4610;50.006;7.490;2023-02-01T12:38:33;9.83;;;2.63;;
9150;SDS011;4610;50.006;7.490;2023-02-01T12:41:26;11.93;;;3.00;;
9150;SDS011;4610;50.006;7.490;2023-02-01T12:44:03;9.47;;;2.00;;
9150;SDS011;4610;50.006;7.490;2023-02-01T12:46:39;12.67;;;2.40;;
9150;SDS011;4610;50.006;7.490;2023-02-01T12:49:11;10.60;;;2.47;;
9150;SDS011;4610;50.006;7.490;2023-02-01T12:51:44;9.70;;;1.90;;
9150;SDS011;4610;50.006;7.490;2023-02-01T12:54:15;11.77;;;2.57;;
9150;SDS011;4610;50.006;7.490;2023-02-01T12:56:47;17.03;;;2.60;;
9150;SDS011;4610;50.006;7.490;2023-02-01T12:59:19;12.07;;;2.30;;
9150;SDS011;4610;50.006;7.490;2023-02-01T13:01:53;8.40;;;2.00;;
9150;SDS011;4610;50.006;7.490;2023-02-01T13:04:25;6.33;;;2.00;;
9150;SDS011;4610;50.006;7.490;2023-02-01T13:06:57;14.67;;;4.00;;
9150;SDS011;4610;50.006;7.490;2023-02-01T13:09:34;15.30;;;2.63;;
9150;SDS011;4610;50.006;7.490;2023-02-01T13:12:06;6.50;;;2.33;;
9150;SDS011;4610;50.006;7.490;2023-02-01T13:14:39;12.63;;;3.13;;
9150;SDS011;4610;50.006;7.490;2023-02-01T13:17:14;8.17;;;2.20;;
9150;SDS011;4610;50.006;7.490;2023-02-01T13:19:44;8.43;;;2.33;;
9150;SDS011;4610;50.006;7.490;2023-02-01T13:22:17;9.23;;;2.50;;
9150;SDS011;4610;50.006;7.490;2023-02-01T13:24:50;8.50;;;2.10;;
9150;SDS011;4610;50.006;7.490;2023-02-01T13:27:20;4.53;;;1.90;;
9150;SDS011;4610;50.006;7.490;2023-02-01T13:29:49;9.20;;;2.10;;
9150;SDS011;4610;50.006;7.490;2023-02-01T13:32:26;6.97;;;1.77;;
9150;SDS011;4610;50.006;7.490;2023-02-01T13:35:23;11.77;;;2.83;;
9150;SDS011;4610;50.006;7.490;2023-02-01T13:38:04;12.27;;;2.33;;
9150;SDS011;4610;50.006;7.490;2023-02-01T13:40:46;9.90;;;2.10;;
9150;SDS011;4610;50.006;7.490;2023-02-01T13:43:22;9.70;;;2.07;;
9150;SDS011;4610;50.006;7.490;2023-02-01T13:45:52;10.07;;;2.93;;
9150;SDS011;4610;50.006;7.490;2023-02-01T13:48:23;12.13;;;2.87;;
9150;SDS011;4610;50.006;7.490;2023-02-01T13:50:56;7.17;;;2.07;;
9150;SDS011;4610;50.006;7.490;2023-02-01T13:53:26;14.80;;;1.97;;
9150;SDS011;4610;50.006;7.490;2023-02-01T13:55:57;8.20;;;2.63;;
9150;SDS011;4610;50.006;7.490;2023-02-01T13:58:29;9.10;;;1.90;;
9150;SDS011;4610;50.006;7.490;2023-02-01T14:07:18;10.63;;;2.20;;
9150;SDS011;4610;50.006;7.490;2023-02-01T14:09:46;8.43;;;1.80;;
9150;SDS011;4610;50.006;7.490;2023-02-01T14:15:20;12.10;;;2.17;;
9150;SDS011;4610;50.006;7.490;2023-02-01T14:17:51;8.53;;;2.50;;
9150;SDS011;4610;50.006;7.490;2023-02-01T14:23:25;8.30;;;2.60;;
9150;SDS011;4610;50.006;7.490;2023-02-01T14:26:11;14.83;;;2.10;;
9150;SDS011;4610;50.006;7.490;2023-02-01T14:28:43;4.10;;;1.70;;
9150;SDS011;4610;50.006;7.490;2023-02-01T14:31:40;6.10;;;1.80;;
9150;SDS011;4610;50.006;7.490;2023-02-01T14:34:15;10.27;;;2.23;;
9150;SDS011;4610;50.006;7.490;2023-02-01T14:36:47;8.93;;;2.50;;
9150;SDS011;4610;50.006;7.490;2023-02-01T14:39:22;9.00;;;2.47;;
9150;SDS011;4610;50.006;7.490;2023-02-01T14:41:53;10.20;;;2.30;;
9150;SDS011;4610;50.006;7.490;2023-02-01T14:44:29;5.07;;;2.00;;
9150;SDS011;4610;50.006;7.490;2023-02-01T14:47:08;8.83;;;2.10;;
9150;SDS011;4610;50.006;7.490;2023-02-01T14:49:53;10.87;;;2.20;;
9150;SDS011;4610;50.006;7.490;2023-02-01T14:52:28;11.40;;;1.97;;
9150;SDS011;4610;50.006;7.490;2023-02-01T14:55:00;8.90;;;2.00;;
9150;SDS011;4610;50.006;7.490;2023-02-01T14:57:30;6.23;;;1.70;;
9150;SDS011;4610;50.006;7.490;2023-02-01T15:00:00;11.00;;;2.00;;
9150;SDS011;4610;50.006;7.490;2023-02-01T15:02:33;8.30;;;2.23;;
9150;SDS011;4610;50.006;7.490;2023-02-01T15:05:12;6.70;;;1.80;;
9150;SDS011;4610;50.006;7.490;2023-02-01T15:07:56;5.47;;;1.53;;
9150;SDS011;4610;50.006;7.490;2023-02-01T15:10:25;4.70;;;1.40;;
9150;SDS011;4610;50.006;7.490;2023-02-01T15:12:52;7.00;;;2.33;;
9150;SDS011;4610;50.006;7.490;2023-02-01T15:15:20;5.97;;;2.23;;
9150;SDS011;4610;50.006;7.490;2023-02-01T15:17:49;10.83;;;2.10;;
9150;SDS011;4610;50.006;7.490;2023-02-01T15:20:18;6.60;;;1.93;;
9150;SDS011;4610;50.006;7.490;2023-02-01T15:22:58;7.00;;;1.83;;
9150;SDS011;4610;50.006;7.490;2023-02-01T15:25:26;6.73;;;1.93;;
9150;SDS011;4610;50.006;7.490;2023-02-01T15:27:54;9.67;;;2.10;;
9150;SDS011;4610;50.006;7.490;2023-02-01T15:30:22;9.97;;;2.10;;
9150;SDS011;4610;50.006;7.490;2023-02-01T15:32:51;10.07;;;1.97;;
9150;SDS011;4610;50.006;7.490;2023-02-01T15:35:37;10.87;;;2.37;;
9150;SDS011;4610;50.006;7.490;2023-02-01T15:41:06;9.67;;;2.23;;
9150;SDS011;4610;50.006;7.490;2023-02-01T15:43:36;7.90;;;2.13;;
9150;SDS011;4610;50.006;7.490;2023-02-01T15:46:07;6.50;;;1.87;;
9150;SDS011;4610;50.006;7.490;2023-02-01T15:48:36;11.57;;;2.93;;
9150;SDS011;4610;50.006;7.490;2023-02-01T15:51:11;8.00;;;1.93;;
9150;SDS011;4610;50.006;7.490;2023-02-01T15:53:44;6.67;;;2.27;;
9150;SDS011;4610;50.006;7.490;2023-02-01T15:56:14;12.77;;;2.20;;
9150;SDS011;4610;50.006;7.490;2023-02-01T15:58:42;9.07;;;2.10;;
9150;SDS011;4610;50.006;7.490;2023-02-01T16:01:13;6.23;;;1.80;;
9150;SDS011;4610;50.006;7.490;2023-02-01T16:03:40;8.47;;;2.53;;